createdAt,value
2019-06-10T00:00:31.425Z,2.80
2019-06-10T00:02:59.788Z,3.10
2019-06-10T00:05:27.646Z,3.20
2019-06-10T00:07:55.840Z,3.40
2019-06-10T00:10:23.217Z,3.30
2019-06-10T00:12:51.413Z,3.37
2019-06-10T00:15:21.391Z,3.60
2019-06-10T00:18:01.197Z,4.10
2019-06-10T00:20:17.223Z,2.97
2019-06-10T00:22:44.508Z,3.43
2019-06-10T00:25:12.099Z,3.33
2019-06-10T00:27:41.894Z,3.10
2019-06-10T00:30:09.939Z,3.33
2019-06-10T00:32:37.373Z,3.33
2019-06-10T00:35:07.384Z,3.00
2019-06-10T00:37:34.854Z,3.27
2019-06-10T00:40:05.915Z,2.90
2019-06-10T00:42:33.445Z,3.60
2019-06-10T00:45:05.335Z,2.97
2019-06-10T00:47:30.846Z,3.40
2019-06-10T00:49:58.198Z,3.30
2019-06-10T00:52:25.394Z,3.40
2019-06-10T00:54:52.981Z,3.20
2019-06-10T00:57:20.918Z,3.20
2019-06-10T00:59:50.666Z,3.47
2019-06-10T01:02:17.441Z,3.73
2019-06-10T01:04:45.526Z,3.47
2019-06-10T01:07:14.781Z,3.30
2019-06-10T01:09:41.672Z,3.23
2019-06-10T01:12:09.091Z,3.37
2019-06-10T01:14:36.897Z,3.50
2019-06-10T01:17:05.416Z,3.60
2019-06-10T01:19:32.789Z,3.37
2019-06-10T01:22:01.529Z,3.53
2019-06-10T01:24:31.272Z,3.40
2019-06-10T01:26:57.840Z,3.23
2019-06-10T01:29:25.073Z,3.60
2019-06-10T01:31:52.276Z,3.03
2019-06-10T01:34:21.565Z,3.87
2019-06-10T01:36:50.770Z,3.47
2019-06-10T01:39:18.063Z,2.97
2019-06-10T01:41:45.340Z,3.17
2019-06-10T01:44:14.680Z,3.30
2019-06-10T01:46:41.873Z,3.50
2019-06-10T01:49:11.596Z,3.27
2019-06-10T01:51:41.033Z,3.27
2019-06-10T01:54:07.517Z,3.40
2019-06-10T01:56:34.724Z,3.87
2019-06-10T01:59:01.941Z,3.77
2019-06-10T02:01:33.722Z,3.30
2019-06-10T02:04:01.844Z,3.47
2019-06-10T02:06:31.493Z,3.53
2019-06-10T02:09:04.935Z,3.53
2019-06-10T02:11:32.517Z,3.67
2019-06-10T02:14:00.885Z,3.77
2019-06-10T02:16:28.146Z,3.90
2019-06-10T02:19:00.512Z,3.60
2019-06-10T02:21:24.589Z,3.63
2019-06-10T02:23:52.182Z,3.50
2019-06-10T02:26:22.249Z,3.23
2019-06-10T02:28:50.883Z,3.50
2019-06-10T02:31:22.836Z,3.83
2019-06-10T02:33:46.561Z,3.73
2019-06-10T02:36:17.300Z,3.70
2019-06-10T02:38:44.422Z,3.30
2019-06-10T02:41:17.413Z,3.80
2019-06-10T02:43:44.039Z,3.30
2019-06-10T02:46:13.709Z,3.77
2019-06-10T02:48:39.596Z,3.73
2019-06-10T02:51:06.998Z,3.67
2019-06-10T02:53:36.483Z,3.50
2019-06-10T02:56:05.224Z,3.70
2019-06-10T02:58:38.349Z,3.50
2019-06-10T03:01:04.194Z,3.73
2019-06-10T03:03:39.416Z,4.67
2019-06-10T03:05:59.949Z,3.80
2019-06-10T03:08:31.329Z,3.90
2019-06-10T03:10:56.113Z,3.20
2019-06-10T03:13:25.447Z,3.20
2019-06-10T03:16:06.308Z,3.73
2019-06-10T03:18:33.541Z,3.63
2019-06-10T03:21:02.606Z,3.40
2019-06-10T03:23:31.855Z,3.90
2019-06-10T03:26:00.386Z,3.40
2019-06-10T03:28:27.801Z,3.60
2019-06-10T03:30:59.069Z,3.80
2019-06-10T03:33:34.583Z,3.40
2019-06-10T03:35:53.657Z,3.60
2019-06-10T03:38:23.665Z,3.67
2019-06-10T03:40:52.354Z,3.77
2019-06-10T03:43:19.216Z,3.63
2019-06-10T03:45:46.417Z,3.70
2019-06-10T03:48:13.628Z,3.20
2019-06-10T03:50:43.144Z,3.73
2019-06-10T03:53:12.676Z,3.87
2019-06-10T03:55:39.364Z,3.30
2019-06-10T03:58:06.599Z,3.37
2019-06-10T04:00:36.811Z,3.73
2019-06-10T04:03:02.918Z,4.07
2019-06-10T04:05:30.241Z,3.10
2019-06-10T04:07:57.436Z,3.40
2019-06-10T04:10:27.783Z,3.83
2019-06-10T04:12:53.841Z,3.23
2019-06-10T04:15:24.821Z,3.60
2019-06-10T04:17:50.022Z,3.57
2019-06-10T04:20:17.774Z,4.00
2019-06-10T04:22:45.093Z,3.33
2019-06-10T04:25:12.661Z,3.33
2019-06-10T04:27:42.284Z,3.13
2019-06-10T04:30:09.180Z,3.60
2019-06-10T04:32:36.439Z,3.67
2019-06-10T04:35:03.983Z,3.83
2019-06-10T04:37:32.541Z,3.73
2019-06-10T04:40:02.623Z,3.50
2019-06-10T04:42:29.025Z,3.33
2019-06-10T04:44:56.293Z,3.47
2019-06-10T04:47:25.266Z,3.30
2019-06-10T04:49:52.464Z,3.50
2019-06-10T04:52:21.235Z,3.70
2019-06-10T04:54:48.578Z,3.70
2019-06-10T04:57:15.810Z,3.27
2019-06-10T04:59:43.026Z,3.37
2019-06-10T05:02:12.661Z,3.47
2019-06-10T05:04:39.162Z,3.40
2019-06-10T05:07:06.369Z,3.10
2019-06-10T05:09:33.712Z,3.43
2019-06-10T05:12:02.907Z,3.17
2019-06-10T05:14:33.153Z,3.30
2019-06-10T05:16:59.271Z,3.33
2019-06-10T05:19:27.899Z,3.40
2019-06-10T05:21:55.771Z,3.10
2019-06-10T05:24:25.350Z,3.37
2019-06-10T05:26:52.724Z,3.47
2019-06-10T05:29:20.711Z,3.30
2019-06-10T05:31:48.954Z,3.70
2019-06-10T05:34:16.155Z,3.50
2019-06-10T05:36:43.851Z,3.33
2019-06-10T05:39:12.155Z,3.30
2019-06-10T05:41:39.858Z,3.10
2019-06-10T05:44:07.086Z,3.40
2019-06-10T05:46:35.021Z,3.50
2019-06-10T05:49:03.064Z,3.47
2019-06-10T05:51:31.359Z,3.23
2019-06-10T05:54:02.034Z,3.67
2019-06-10T05:56:29.152Z,3.63
2019-06-10T05:58:56.368Z,3.20
2019-06-10T06:01:24.287Z,3.30
2019-06-10T06:03:53.036Z,3.57
2019-06-10T06:06:22.757Z,3.70
2019-06-10T06:08:49.382Z,3.53
2019-06-10T06:11:16.610Z,3.03
2019-06-10T06:13:43.809Z,3.20
2019-06-10T06:16:12.588Z,3.07
2019-06-10T06:18:42.228Z,3.60
2019-06-10T06:21:22.472Z,3.23
2019-06-10T06:23:38.344Z,3.30
2019-06-10T06:26:05.846Z,3.20
2019-06-10T06:28:35.946Z,3.37
2019-06-10T06:31:03.383Z,2.90
2019-06-10T06:33:34.774Z,3.60
2019-06-10T06:35:59.999Z,3.30
2019-06-10T06:38:27.242Z,3.33
2019-06-10T06:40:54.479Z,3.47
2019-06-10T06:43:22.189Z,3.73
2019-06-10T06:45:49.849Z,3.23
2019-06-10T06:48:17.061Z,3.40
2019-06-10T06:51:00.389Z,3.20
2019-06-10T06:53:30.041Z,3.40
2019-06-10T06:55:43.297Z,3.50
2019-06-10T06:58:12.554Z,3.57
2019-06-10T07:00:59.767Z,3.03
2019-06-10T07:03:08.882Z,2.90
2019-06-10T07:05:38.802Z,3.40
2019-06-10T07:08:07.014Z,2.70
2019-06-10T07:10:36.112Z,3.90
2019-06-10T07:13:04.878Z,3.10
2019-06-10T07:15:46.463Z,3.10
2019-06-10T07:18:13.050Z,2.90
2019-06-10T07:20:41.653Z,2.87
2019-06-10T07:23:08.971Z,2.73
2019-06-10T07:25:38.669Z,2.70
2019-06-10T07:28:05.459Z,3.40
2019-06-10T07:30:36.942Z,3.00
2019-06-10T07:33:02.966Z,2.90
2019-06-10T07:35:32.605Z,2.77
2019-06-10T07:37:59.230Z,3.20
2019-06-10T07:40:26.454Z,3.10
2019-06-10T07:42:53.681Z,2.73
2019-06-10T07:45:22.132Z,2.90
2019-06-10T07:47:49.486Z,2.70
2019-06-10T07:50:17.326Z,2.80
2019-06-10T07:52:46.748Z,2.50
2019-06-10T07:55:13.741Z,2.77
2019-06-10T07:57:43.857Z,3.22
2019-06-10T08:00:12.241Z,3.20
2019-06-10T08:02:42.832Z,2.75
2019-06-10T08:05:08.873Z,2.58
2019-06-10T08:07:36.707Z,2.80
2019-06-10T08:10:06.918Z,2.70
2019-06-10T08:12:35.094Z,2.65
2019-06-10T08:15:02.865Z,2.55
2019-06-10T08:17:32.699Z,2.60
2019-06-10T08:19:59.429Z,2.70
2019-06-10T08:22:33.434Z,2.40
2019-06-10T08:24:55.572Z,2.47
2019-06-10T08:27:22.935Z,2.37
2019-06-10T08:30:07.821Z,2.58
2019-06-10T08:32:19.239Z,2.40
2019-06-10T08:34:48.025Z,2.47
2019-06-10T08:37:15.448Z,2.30
2019-06-10T08:39:44.339Z,2.67
2019-06-10T08:42:12.449Z,2.67
2019-06-10T08:44:43.479Z,2.65
2019-06-10T08:47:12.421Z,2.90
2019-06-10T08:49:42.488Z,3.17
2019-06-10T08:52:09.057Z,2.83
2019-06-10T08:54:38.597Z,2.50
2019-06-10T08:57:05.549Z,2.27
2019-06-10T08:59:33.245Z,2.33
2019-06-10T09:02:02.429Z,2.58
2019-06-10T09:04:29.666Z,2.70
2019-06-10T09:06:57.516Z,2.60
2019-06-10T09:09:24.984Z,2.52
2019-06-10T09:11:54.650Z,2.60
2019-06-10T09:14:23.443Z,2.35
2019-06-10T09:16:51.423Z,2.90
2019-06-10T09:19:19.286Z,2.50
2019-06-10T09:21:51.106Z,2.83
2019-06-10T09:24:15.454Z,2.70
2019-06-10T09:26:45.068Z,2.60
2019-06-10T09:29:13.412Z,2.75
2019-06-10T09:31:45.611Z,2.40
2019-06-10T09:34:12.570Z,2.35
2019-06-10T09:36:40.903Z,2.67
2019-06-10T09:39:07.750Z,2.60
2019-06-10T09:41:40.191Z,2.95
2019-06-10T09:44:04.178Z,2.30
2019-06-10T09:46:33.325Z,2.45
2019-06-10T09:49:02.224Z,2.17
2019-06-10T09:51:29.453Z,2.30
2019-06-10T09:54:03.697Z,2.75
2019-06-10T09:56:25.603Z,2.30
2019-06-10T09:58:55.224Z,2.58
2019-06-10T10:01:24.362Z,2.35
2019-06-10T10:03:59.085Z,2.20
2019-06-10T10:06:19.665Z,2.42
2019-06-10T10:08:51.462Z,2.52
2019-06-10T10:11:15.925Z,2.77
2019-06-10T10:13:46.068Z,2.80
2019-06-10T10:16:13.108Z,2.50
2019-06-10T10:18:46.954Z,2.98
2019-06-10T10:21:09.538Z,2.65
2019-06-10T10:23:51.351Z,2.72
2019-06-10T10:26:05.702Z,2.83
2019-06-10T10:28:33.650Z,2.75
2019-06-10T10:31:03.555Z,2.60
2019-06-10T10:33:33.046Z,2.58
2019-06-10T10:35:58.889Z,2.40
2019-06-10T10:38:26.382Z,2.70
2019-06-10T10:40:58.577Z,2.80
2019-06-10T10:43:32.089Z,2.65
2019-06-10T10:45:57.034Z,2.85
2019-06-10T10:48:22.591Z,2.47
2019-06-10T10:50:52.718Z,3.00
2019-06-10T10:53:18.561Z,2.72
2019-06-10T10:55:47.147Z,2.70
2019-06-10T10:58:14.841Z,2.62
2019-06-10T11:00:45.383Z,2.60
2019-06-10T11:03:13.392Z,2.67
2019-06-10T11:05:40.939Z,2.42
2019-06-10T11:08:08.344Z,2.70
2019-06-10T11:10:35.700Z,2.58
2019-06-10T11:13:03.182Z,2.67
2019-06-10T11:15:33.828Z,2.60
2019-06-10T11:17:59.426Z,3.02
2019-06-10T11:20:26.630Z,2.55
2019-06-10T11:22:53.863Z,2.47
2019-06-10T11:25:23.097Z,2.55
2019-06-10T11:27:52.361Z,2.50
2019-06-10T11:30:18.978Z,2.20
2019-06-10T11:32:47.857Z,2.62
2019-06-10T11:35:15.501Z,2.35
2019-06-10T11:37:42.902Z,2.70
2019-06-10T11:40:12.925Z,2.42
2019-06-10T11:42:39.505Z,2.70
2019-06-10T11:45:07.805Z,2.55
2019-06-10T11:47:35.001Z,2.85
2019-06-10T11:50:03.579Z,1.98
2019-06-10T11:52:33.469Z,2.90
2019-06-10T11:55:11.968Z,2.52
2019-06-10T11:57:29.122Z,2.42
2019-06-10T11:59:57.784Z,2.45
2019-06-10T12:02:27.338Z,2.60
2019-06-10T12:04:56.416Z,2.55
2019-06-10T12:07:23.710Z,2.50
2019-06-10T12:09:54.019Z,2.45
2019-06-10T12:12:22.064Z,2.58
2019-06-10T12:14:49.353Z,2.40
2019-06-10T12:17:30.388Z,2.10
2019-06-10T12:19:45.906Z,2.70
2019-06-10T12:22:13.485Z,2.65
2019-06-10T12:24:43.204Z,2.58
2019-06-10T12:27:09.874Z,2.50
2019-06-10T12:29:37.093Z,2.50
2019-06-10T12:32:07.364Z,2.92
2019-06-10T12:34:33.539Z,2.00
2019-06-10T12:37:10.736Z,3.02
2019-06-10T12:39:31.177Z,2.70
2019-06-10T12:41:59.851Z,2.80
2019-06-10T12:44:27.368Z,2.40
2019-06-10T12:46:57.940Z,2.33
2019-06-10T12:49:23.535Z,2.55
2019-06-10T12:51:52.910Z,2.50
2019-06-10T12:54:22.497Z,2.77
2019-06-10T12:56:48.862Z,2.55
2019-06-10T12:59:16.075Z,2.67
2019-06-10T13:01:44.770Z,2.35
2019-06-10T13:04:13.696Z,2.58
2019-06-10T13:06:42.729Z,2.50
2019-06-10T13:09:12.768Z,2.60
2019-06-10T13:11:39.211Z,2.37
2019-06-10T13:14:07.225Z,3.00
2019-06-10T13:16:35.749Z,2.62
2019-06-10T13:19:04.903Z,2.37
2019-06-10T13:21:32.936Z,2.80
2019-06-10T13:24:03.479Z,2.80
2019-06-10T13:26:32.978Z,2.47
2019-06-10T13:29:00.989Z,2.45
2019-06-10T13:31:28.780Z,2.30
2019-06-10T13:33:56.590Z,3.25
2019-06-10T13:36:26.222Z,2.55
2019-06-10T13:38:53.360Z,2.42
2019-06-10T13:41:22.754Z,2.25
2019-06-10T13:43:49.665Z,2.75
2019-06-10T13:46:16.877Z,2.55
2019-06-10T13:48:44.615Z,2.72
2019-06-10T13:51:15.351Z,2.58
2019-06-10T13:53:42.599Z,2.12
2019-06-10T13:56:37.041Z,2.40
2019-06-10T13:58:39.013Z,2.27
2019-06-10T14:01:10.078Z,2.40
2019-06-10T14:03:35.234Z,2.25
2019-06-10T14:06:18.382Z,2.30
2019-06-10T14:08:32.477Z,2.27
2019-06-10T14:11:03.398Z,2.65
2019-06-10T14:13:28.869Z,2.25
2019-06-10T14:15:56.454Z,2.50
2019-06-10T14:18:23.634Z,2.50
2019-06-10T14:20:53.213Z,2.15
2019-06-10T14:23:22.013Z,2.10
2019-06-10T14:25:49.246Z,2.35
2019-06-10T14:28:34.854Z,2.37
2019-06-10T14:30:45.404Z,2.62
2019-06-10T14:33:16.325Z,2.50
2019-06-10T14:35:42.860Z,2.40
2019-06-10T14:38:13.005Z,2.52
2019-06-10T14:40:39.444Z,2.55
2019-06-10T14:43:06.645Z,2.27
2019-06-10T14:45:33.841Z,2.50
2019-06-10T14:48:02.863Z,2.40
2019-06-10T14:50:32.433Z,2.52
2019-06-10T14:52:59.164Z,2.75
2019-06-10T14:55:26.686Z,2.50
2019-06-10T14:57:53.877Z,2.70
2019-06-10T15:00:23.614Z,2.37
2019-06-10T15:02:50.218Z,2.72
2019-06-10T15:05:17.912Z,2.45
2019-06-10T15:07:45.144Z,2.40
2019-06-10T15:10:15.907Z,2.62
2019-06-10T15:12:42.284Z,2.35
2019-06-10T15:15:10.242Z,2.70
2019-06-10T15:17:37.614Z,2.50
2019-06-10T15:20:05.477Z,2.10
2019-06-10T15:22:33.027Z,2.52
2019-06-10T15:25:03.045Z,2.72
2019-06-10T15:27:31.596Z,2.40
2019-06-10T15:29:58.299Z,2.45
2019-06-10T15:32:33.736Z,2.47
2019-06-10T15:34:54.457Z,2.45
2019-06-10T15:37:24.107Z,2.12
2019-06-10T15:39:52.740Z,2.45
2019-06-10T15:42:19.775Z,2.22
2019-06-10T15:44:52.287Z,2.25
2019-06-10T15:47:20.482Z,2.45
2019-06-10T15:49:44.887Z,2.50
2019-06-10T15:52:13.938Z,2.83
2019-06-10T15:54:42.650Z,2.10
2019-06-10T15:57:26.884Z,2.33
2019-06-10T15:59:39.313Z,2.10
2019-06-10T16:02:06.538Z,1.98
2019-06-10T16:04:35.273Z,2.30
2019-06-10T16:07:02.899Z,2.55
2019-06-10T16:09:32.149Z,2.47
2019-06-10T16:11:59.222Z,2.50
2019-06-10T16:14:26.455Z,2.80
2019-06-10T16:16:53.675Z,2.83
2019-06-10T16:19:21.289Z,2.40
2019-06-10T16:21:48.553Z,2.47
2019-06-10T16:24:17.224Z,2.60
2019-06-10T16:26:44.730Z,2.60
2019-06-10T16:29:12.383Z,2.63
2019-06-10T16:31:42.388Z,2.70
2019-06-10T16:34:08.717Z,2.67
2019-06-10T16:36:35.940Z,2.80
2019-06-10T16:39:04.796Z,2.40
2019-06-10T16:41:32.359Z,2.60
2019-06-10T16:43:59.723Z,2.30
2019-06-10T16:46:27.029Z,2.40
2019-06-10T16:48:54.317Z,2.40
2019-06-10T16:51:21.791Z,2.43
2019-06-10T16:53:49.005Z,2.30
2019-06-10T16:56:16.230Z,2.30
2019-06-10T16:58:43.435Z,2.60
2019-06-10T17:01:12.455Z,2.20
2019-06-10T17:03:42.315Z,2.77
2019-06-10T17:06:08.790Z,2.73
2019-06-10T17:08:36.000Z,2.20
2019-06-10T17:11:03.572Z,2.17
2019-06-10T17:13:30.898Z,2.53
2019-06-10T17:15:58.122Z,2.27
2019-06-10T17:18:27.895Z,2.57
2019-06-10T17:20:54.279Z,2.30
2019-06-10T17:23:25.639Z,2.30
2019-06-10T17:25:53.436Z,2.37
2019-06-10T17:28:24.852Z,2.57
2019-06-10T17:30:52.874Z,2.17
2019-06-10T17:33:20.430Z,2.17
2019-06-10T17:35:47.929Z,2.20
2019-06-10T17:38:15.129Z,2.70
2019-06-10T17:40:42.330Z,2.87
2019-06-10T17:43:09.550Z,2.80
2019-06-10T17:45:36.755Z,2.57
2019-06-10T17:48:04.354Z,2.70
2019-06-10T17:50:32.855Z,2.47
2019-06-10T17:53:02.462Z,2.50
2019-06-10T17:55:33.247Z,2.60
2019-06-10T17:57:58.393Z,2.60
2019-06-10T18:00:26.544Z,2.93
2019-06-10T18:02:54.557Z,2.70
2019-06-10T18:05:22.531Z,2.10
2019-06-10T18:07:52.702Z,2.30
2019-06-10T18:10:22.269Z,2.20
2019-06-10T18:12:48.597Z,2.70
2019-06-10T18:15:16.253Z,2.30
2019-06-10T18:17:43.489Z,2.50
2019-06-10T18:20:13.551Z,2.30
2019-06-10T18:22:40.282Z,2.57
2019-06-10T18:25:07.586Z,2.50
2019-06-10T18:27:36.679Z,2.30
2019-06-10T18:30:10.731Z,2.23
2019-06-10T18:32:36.064Z,2.80
2019-06-10T18:35:04.146Z,2.70
2019-06-10T18:37:34.518Z,2.63
2019-06-10T18:40:02.646Z,2.60
2019-06-10T18:42:29.251Z,3.00
2019-06-10T18:44:56.750Z,2.63
2019-06-10T18:47:23.985Z,2.37
2019-06-10T18:49:52.737Z,2.40
2019-06-10T18:52:20.074Z,2.77
2019-06-10T18:54:47.285Z,2.33
2019-06-10T18:57:14.777Z,2.60
2019-06-10T18:59:42.817Z,2.37
2019-06-10T19:02:12.088Z,2.40
2019-06-10T19:04:40.123Z,2.67
2019-06-10T19:07:07.394Z,2.27
2019-06-10T19:09:37.980Z,2.63
2019-06-10T19:12:03.540Z,2.23
2019-06-10T19:14:33.579Z,2.10
2019-06-10T19:16:59.957Z,2.20
2019-06-10T19:19:27.187Z,1.87
2019-06-10T19:22:05.490Z,1.87
2019-06-10T19:24:23.613Z,2.17
2019-06-10T19:26:52.696Z,2.10
2019-06-10T19:29:30.807Z,2.30
2019-06-10T19:31:48.730Z,2.23
2019-06-10T19:34:16.001Z,2.27
2019-06-10T19:36:43.222Z,2.47
2019-06-10T19:39:12.980Z,1.77
2019-06-10T19:41:44.156Z,2.30
2019-06-10T19:44:08.288Z,2.40
2019-06-10T19:46:35.701Z,1.97
2019-06-10T19:49:06.955Z,1.87
2019-06-10T19:51:32.934Z,2.00
2019-06-10T19:54:03.542Z,2.13
2019-06-10T19:56:30.094Z,2.00
2019-06-10T19:58:57.289Z,1.60
2019-06-10T20:01:24.547Z,1.60
2019-06-10T20:03:52.131Z,1.83
2019-06-10T20:06:19.581Z,1.73
2019-06-10T20:08:46.811Z,2.00
2019-06-10T20:11:14.020Z,1.93
2019-06-10T20:13:43.676Z,1.80
2019-06-10T20:16:12.052Z,1.73
2019-06-10T20:18:40.380Z,2.00
2019-06-10T20:21:07.771Z,2.10
2019-06-10T20:23:35.466Z,2.27
2019-06-10T20:26:02.994Z,2.13
2019-06-10T20:28:32.191Z,2.17
2019-06-10T20:30:59.164Z,2.00
2019-06-10T20:33:36.595Z,1.63
2019-06-10T20:36:06.599Z,2.13
2019-06-10T20:38:32.570Z,2.27
2019-06-10T20:41:02.437Z,2.10
2019-06-10T20:43:29.122Z,2.03
2019-06-10T20:45:58.273Z,1.90
2019-06-10T20:48:25.279Z,1.97
2019-06-10T20:50:53.306Z,1.87
2019-06-10T20:53:20.676Z,1.90
2019-06-10T20:55:52.736Z,1.97
2019-06-10T20:58:16.841Z,2.10
2019-06-10T21:00:49.942Z,2.33
2019-06-10T21:03:13.056Z,1.93
2019-06-10T21:05:41.558Z,2.40
2019-06-10T21:08:09.173Z,2.17
2019-06-10T21:10:36.845Z,2.17
2019-06-10T21:13:05.046Z,2.00
2019-06-10T21:15:33.315Z,2.07
2019-06-10T21:18:01.926Z,2.10
2019-06-10T21:20:29.126Z,2.20
2019-06-10T21:22:56.404Z,2.10
2019-06-10T21:25:23.860Z,2.17
2019-06-10T21:27:53.854Z,2.00
2019-06-10T21:30:36.714Z,2.27
2019-06-10T21:32:50.861Z,2.00
2019-06-10T21:35:18.670Z,1.80
2019-06-10T21:37:47.152Z,2.30
2019-06-10T21:40:14.862Z,2.17
2019-06-10T21:42:42.077Z,1.90
2019-06-10T21:45:09.761Z,1.87
2019-06-10T21:47:36.992Z,2.27
2019-06-10T21:50:05.724Z,2.00
2019-06-10T21:52:32.947Z,2.10
2019-06-10T21:55:02.789Z,1.83
2019-06-10T21:57:29.109Z,2.10
2019-06-10T21:59:56.621Z,2.17
2019-06-10T22:02:23.854Z,2.00
2019-06-10T22:04:53.783Z,2.30
2019-06-10T22:07:22.419Z,2.10
2019-06-10T22:09:49.810Z,1.77
2019-06-10T22:12:17.027Z,2.37
2019-06-10T22:14:44.572Z,2.53
2019-06-10T22:17:12.289Z,2.07
2019-06-10T22:19:39.665Z,2.00
2019-06-10T22:22:06.884Z,2.10
2019-06-10T22:24:34.105Z,1.90
2019-06-10T22:27:02.711Z,2.00
2019-06-10T22:29:32.131Z,2.10
2019-06-10T22:31:59.029Z,2.07
2019-06-10T22:34:26.249Z,2.20
2019-06-10T22:36:55.496Z,1.90
2019-06-10T22:39:22.949Z,2.23
2019-06-10T22:41:53.397Z,2.20
2019-06-10T22:44:19.106Z,1.80
2019-06-10T22:46:47.530Z,2.30
2019-06-10T22:49:14.801Z,1.80
2019-06-10T22:51:42.876Z,2.00
2019-06-10T22:54:10.517Z,1.90
2019-06-10T22:56:37.736Z,1.90
2019-06-10T22:59:04.947Z,1.90
2019-06-10T23:01:37.870Z,2.20
2019-06-10T23:04:03.865Z,1.73
2019-06-10T23:06:30.372Z,1.50
2019-06-10T23:08:59.366Z,1.73
2019-06-10T23:11:26.953Z,1.90
2019-06-10T23:13:56.495Z,2.07
2019-06-10T23:16:23.097Z,1.80
2019-06-10T23:18:51.489Z,1.97
2019-06-10T23:21:19.250Z,1.93
2019-06-10T23:23:46.465Z,1.83
2019-06-10T23:26:13.703Z,1.70
2019-06-10T23:28:42.112Z,1.90
2019-06-10T23:31:09.439Z,2.10
2019-06-10T23:33:36.890Z,1.70
2019-06-10T23:36:04.279Z,1.80
2019-06-10T23:38:32.948Z,1.90
2019-06-10T23:41:01.483Z,1.77
2019-06-10T23:43:29.277Z,1.70
2019-06-10T23:45:57.175Z,1.60
2019-06-10T23:48:24.478Z,1.67
2019-06-10T23:50:54.107Z,1.60
2019-06-10T23:53:23.024Z,1.67
2019-06-10T23:55:49.979Z,1.80
2019-06-10T23:58:17.429Z,1.67
